Time;durP1;ratioP1;P1;durP2;ratioP2;P2;SDS_P1;SDS_P2;PMS_P1;PMS_P2;Temp;Humidity;BMP_temperature;BMP_pressure;BME280_temperature;BME280_humidity;BME280_pressure;Samples;Min_cycle;Max_cycle;Signal;HPM_P1;HPM_P2
2023/12/21 00:00:45;;;;;;;0.40;0.40;;;4.00;99.90;;;;;;6321683;22;20567;-85
2023/12/21 00:03:13;;;;;;;1.88;1.77;;;4.00;99.90;;;;;;6320017;22;20192;-87
2023/12/21 00:05:41;;;;;;;0.40;0.40;;;4.00;99.90;;;;;;6323195;22;20181;-88
2023/12/21 00:08:08;;;;;;;0.40;0.40;;;4.00;99.90;;;;;;6334984;22;20193;-88
2023/12/21 00:10:35;;;;;;;0.40;0.40;;;4.00;99.90;;;;;;6335835;22;20170;-87
2023/12/21 00:13:03;;;;;;;0.60;0.60;;;4.00;99.90;;;;;;6336054;22;20184;-88
2023/12/21 00:15:31;;;;;;;1.05;1.05;;;4.00;99.90;;;;;;6335760;22;20177;-87
2023/12/21 00:17:59;;;;;;;0.50;0.50;;;4.00;99.90;;;;;;6298431;22;20324;-84
2023/12/21 00:20:26;;;;;;;0.40;0.40;;;4.00;99.90;;;;;;6334778;22;20166;-90
2023/12/21 00:22:57;;;;;;;0.77;0.77;;;3.90;99.90;;;;;;6335719;22;20159;-85
2023/12/21 00:25:24;;;;;;;0.40;0.40;;;3.90;99.90;;;;;;6335865;22;20182;-87
2023/12/21 00:27:52;;;;;;;0.40;0.40;;;3.90;99.90;;;;;;6335041;22;20166;-85
2023/12/21 00:30:21;;;;;;;0.52;0.52;;;3.80;99.90;;;;;;6335301;22;20201;-87
2023/12/21 00:32:54;;;;;;;0.45;0.45;;;3.90;99.90;;;;;;6335852;22;20166;-89
2023/12/21 00:35:23;;;;;;;0.60;0.60;;;3.90;99.90;;;;;;6335365;22;20151;-88
2023/12/21 00:37:52;;;;;;;0.50;0.50;;;3.90;99.90;;;;;;6334182;22;20181;-90
2023/12/21 00:40:19;;;;;;;1.50;1.40;;;3.90;99.90;;;;;;6335060;22;20149;-86
2023/12/21 00:42:51;;;;;;;0.40;0.40;;;3.90;99.90;;;;;;6334231;22;20171;-88
2023/12/21 00:45:20;;;;;;;0.68;0.68;;;3.90;99.90;;;;;;6296151;22;20178;-88
2023/12/21 00:47:50;;;;;;;0.40;0.40;;;4.20;99.90;;;;;;6296877;22;20271;-88
2023/12/21 00:50:18;;;;;;;0.40;0.40;;;3.90;99.90;;;;;;6322247;22;20166;-90
2023/12/21 00:52:49;;;;;;;1.45;1.40;;;3.90;99.90;;;;;;6321331;22;20182;-89
2023/12/21 00:55:21;;;;;;;0.55;0.55;;;3.90;99.90;;;;;;6321262;22;20424;-86
2023/12/21 00:58:00;;;;;;;0.50;0.50;;;3.80;99.90;;;;;;6297127;22;20378;-87
2023/12/21 01:00:28;;;;;;;0.47;0.47;;;3.40;99.90;;;;;;6277040;22;20388;-88
2023/12/21 01:02:59;;;;;;;0.88;0.88;;;3.90;99.90;;;;;;6319531;22;20197;-86
2023/12/21 01:05:28;;;;;;;0.40;0.40;;;4.00;99.90;;;;;;6317385;22;20194;-86
2023/12/21 01:08:04;;;;;;;0.40;0.40;;;3.40;99.90;;;;;;6319480;22;20150;-88
2023/12/21 01:10:38;;;;;;;1.10;1.00;;;3.90;99.90;;;;;;6292613;22;20185;-87
2023/12/21 01:13:06;;;;;;;1.77;1.63;;;3.90;99.90;;;;;;6295999;22;20170;-87
2023/12/21 01:15:42;;;;;;;0.50;0.50;;;3.90;99.90;;;;;;6300575;22;20204;-87
2023/12/21 01:18:23;;;;;;;0.40;0.40;;;3.90;99.90;;;;;;6305750;22;20198;-90
2023/12/21 01:20:52;;;;;;;0.43;0.43;;;3.90;99.90;;;;;;6332049;22;20178;-87
2023/12/21 01:23:22;;;;;;;0.98;0.93;;;4.00;99.90;;;;;;6298720;22;20170;-89
2023/12/21 01:25:50;;;;;;;0.40;0.40;;;4.00;99.90;;;;;;6298059;22;20212;-89
2023/12/21 01:28:24;;;;;;;0.63;0.63;;;4.00;99.90;;;;;;6295989;22;20184;-86
2023/12/21 01:30:59;;;;;;;1.88;1.73;;;4.00;99.90;;;;;;6320988;22;20186;-88
2023/12/21 01:33:39;;;;;;;1.63;1.58;;;4.40;99.90;;;;;;6293527;22;20185;-85
2023/12/21 01:36:20;;;;;;;1.10;1.05;;;4.00;99.90;;;;;;6317033;22;20222;-87
2023/12/21 01:38:59;;;;;;;1.23;1.23;;;4.00;99.90;;;;;;6319683;22;20264;-88
2023/12/21 01:41:28;;;;;;;0.63;0.63;;;4.00;99.90;;;;;;6322198;22;20178;-88
2023/12/21 01:44:02;;;;;;;1.83;1.73;;;4.10;99.90;;;;;;6297033;22;20205;-88
2023/12/21 01:46:34;;;;;;;1.67;1.20;;;4.00;99.90;;;;;;6295273;22;20166;-88
2023/12/21 01:49:07;;;;;;;1.25;1.10;;;4.00;99.90;;;;;;6298286;22;20166;-89
2023/12/21 01:51:55;;;;;;;1.95;0.82;;;4.10;99.90;;;;;;6300829;22;20218;-89
2023/12/21 01:54:29;;;;;;;1.85;1.75;;;4.00;99.90;;;;;;6328079;22;20158;-89
2023/12/21 01:57:03;;;;;;;0.60;0.60;;;3.70;99.90;;;;;;6273697;22;20162;-90
2023/12/21 01:59:51;;;;;;;2.17;2.08;;;4.20;99.90;;;;;;6298796;22;20185;-89
2023/12/21 02:02:51;;;;;;;1.58;1.48;;;4.10;99.90;;;;;;6279533;22;20183;-90
2023/12/21 02:09:08;;;;;;;0.50;0.50;;;4.00;99.90;;;;;;6299109;22;20166;-90
2023/12/21 02:11:55;;;;;;;0.50;0.50;;;4.10;99.90;;;;;;6279786;22;20189;-88
2023/12/21 02:17:40;;;;;;;0.40;0.40;;;4.10;99.90;;;;;;6334830;22;20162;-89
2023/12/21 02:20:34;;;;;;;0.57;0.57;;;4.20;99.90;;;;;;6324611;22;20170;-90
2023/12/21 02:23:14;;;;;;;0.75;0.68;;;4.20;99.90;;;;;;6309396;22;20185;-88
2023/12/21 02:25:45;;;;;;;0.50;0.50;;;4.20;99.90;;;;;;6309511;22;20167;-89
2023/12/21 02:28:30;;;;;;;0.40;0.40;;;4.20;99.90;;;;;;6308718;22;20273;-89
2023/12/21 02:31:11;;;;;;;0.60;0.60;;;4.20;99.90;;;;;;6300070;22;20229;-89
2023/12/21 02:33:45;;;;;;;0.40;0.40;;;4.20;99.90;;;;;;6303353;22;20162;-89
2023/12/21 02:36:40;;;;;;;;;;;;;;;;;;;;;
2023/12/21 02:39:28;;;;;;;0.40;0.40;;;4.30;99.90;;;;;;6298945;22;20180;-88
2023/12/21 02:42:32;;;;;;;0.50;0.50;;;4.40;99.90;;;;;;6297736;22;20200;-89
2023/12/21 02:45:03;;;;;;;0.60;0.60;;;4.40;99.90;;;;;;6321936;22;20178;-89
2023/12/21 02:47:35;;;;;;;0.40;0.40;;;4.40;99.90;;;;;;6321715;22;20167;-90
2023/12/21 02:50:16;;;;;;;0.40;0.40;;;4.40;99.90;;;;;;6323100;22;20166;-91
2023/12/21 02:52:46;;;;;;;0.40;0.40;;;4.50;99.90;;;;;;6296293;22;20154;-89
2023/12/21 02:55:29;;;;;;;0.40;0.40;;;4.40;99.90;;;;;;6295824;22;20209;-89
2023/12/21 02:58:24;;;;;;;0.40;0.40;;;4.50;99.90;;;;;;6207618;22;20234;-86
2023/12/21 03:01:01;;;;;;;0.40;0.40;;;4.50;99.90;;;;;;6317652;22;20202;-88
2023/12/21 03:06:24;;;;;;;0.40;0.40;;;4.50;99.90;;;;;;6362782;22;20256;-89
2023/12/21 03:09:03;;;;;;;0.40;0.40;;;4.60;99.90;;;;;;6328158;22;20178;-90
2023/12/21 03:11:37;;;;;;;0.40;0.40;;;4.60;99.90;;;;;;6352528;22;20180;-91
2023/12/21 03:14:12;;;;;;;0.50;0.50;;;4.60;99.90;;;;;;6323546;22;20212;-90
2023/12/21 03:17:11;;;;;;;;;;;;;;;;;;;;;
2023/12/21 03:19:53;;;;;;;0.50;0.50;;;4.60;99.90;;;;;;6351171;22;20177;-86
2023/12/21 03:22:25;;;;;;;0.90;0.90;;;4.60;99.90;;;;;;6327888;22;20233;-86
2023/12/21 03:25:04;;;;;;;0.80;0.80;;;4.70;99.90;;;;;;6351271;22;20264;-86
2023/12/21 03:27:47;;;;;;;0.50;0.50;;;4.50;99.90;;;;;;6330010;22;20188;-88
2023/12/21 03:30:38;;;;;;;0.50;0.50;;;4.60;99.90;;;;;;6321800;22;20269;-84
2023/12/21 03:33:17;;;;;;;0.50;0.50;;;4.50;99.90;;;;;;6153906;22;20197;-88
2023/12/21 03:35:53;;;;;;;0.40;0.40;;;4.40;99.90;;;;;;6148464;22;20190;-88
2023/12/21 03:39:05;;;;;;;0.50;0.50;;;4.50;99.90;;;;;;6163060;22;20630;-87
2023/12/21 03:41:47;;;;;;;0.80;0.80;;;4.60;99.90;;;;;;6332525;22;20174;-86
2023/12/21 03:46:55;;;;;;;0.40;0.40;;;4.50;99.90;;;;;;6232043;22;20190;-88
2023/12/21 03:49:25;;;;;;;0.40;0.40;;;4.50;99.90;;;;;;6334895;22;20162;-87
2023/12/21 03:52:02;;;;;;;0.50;0.50;;;4.50;99.90;;;;;;6324182;22;20245;-87
2023/12/21 03:54:30;;;;;;;0.40;0.40;;;4.60;99.90;;;;;;6249825;22;20199;-86
2023/12/21 03:57:01;;;;;;;0.40;0.40;;;4.70;99.90;;;;;;6143345;22;20200;-84
2023/12/21 03:59:35;;;;;;;0.50;0.50;;;4.60;99.90;;;;;;6220179;22;20197;-88
2023/12/21 04:02:02;;;;;;;0.40;0.40;;;4.80;99.90;;;;;;6284173;22;20165;-86
2023/12/21 04:04:32;;;;;;;0.50;0.50;;;4.60;99.90;;;;;;6335245;22;20201;-89
2023/12/21 04:07:14;;;;;;;0.50;0.50;;;4.60;99.90;;;;;;6335142;22;20170;-88
2023/12/21 04:09:44;;;;;;;1.13;1.13;;;4.60;99.90;;;;;;6335444;22;20143;-87
2023/12/21 04:12:14;;;;;;;0.50;0.50;;;4.60;99.90;;;;;;6308576;22;20172;-86
2023/12/21 04:14:49;;;;;;;0.40;0.40;;;4.60;99.90;;;;;;6283330;22;20174;-89
2023/12/21 04:17:18;;;;;;;0.40;0.40;;;4.70;99.90;;;;;;6298630;22;20174;-88
2023/12/21 04:19:54;;;;;;;0.40;0.40;;;4.60;99.90;;;;;;6298927;22;20453;-87
2023/12/21 04:22:25;;;;;;;0.40;0.40;;;4.60;99.90;;;;;;6325046;22;20174;-89
2023/12/21 04:24:55;;;;;;;0.40;0.40;;;4.70;99.90;;;;;;6273093;22;20189;-87
2023/12/21 04:27:23;;;;;;;0.40;0.40;;;4.50;99.90;;;;;;6318327;22;20202;-84
2023/12/21 04:29:50;;;;;;;0.40;0.40;;;4.50;99.90;;;;;;6316643;22;20210;-84
2023/12/21 04:32:19;;;;;;;0.40;0.40;;;4.40;99.90;;;;;;6316966;22;20218;-86
2023/12/21 04:34:51;;;;;;;0.60;0.60;;;4.40;99.90;;;;;;6326106;22;20166;-87
2023/12/21 04:37:19;;;;;;;0.40;0.40;;;4.60;99.90;;;;;;6335250;22;20166;-85
2023/12/21 04:39:48;;;;;;;0.40;0.40;;;4.40;99.90;;;;;;6307159;22;20180;-85
2023/12/21 04:42:18;;;;;;;0.40;0.40;;;4.40;99.90;;;;;;6331917;22;20170;-84
2023/12/21 04:44:46;;;;;;;0.40;0.40;;;4.40;99.90;;;;;;6324924;22;20252;-85
2023/12/21 04:47:13;;;;;;;0.40;0.40;;;4.40;99.90;;;;;;6315311;22;20206;-85
2023/12/21 04:49:50;;;;;;;0.40;0.40;;;4.40;99.90;;;;;;6316439;22;20161;-85
2023/12/21 04:52:19;;;;;;;0.40;0.40;;;4.40;99.90;;;;;;6263049;22;20471;-85
2023/12/21 04:54:46;;;;;;;0.40;0.40;;;4.30;99.90;;;;;;6314164;22;20213;-86
2023/12/21 04:57:16;;;;;;;0.40;0.40;;;4.30;99.90;;;;;;6316050;22;20198;-86
2023/12/21 04:59:48;;;;;;;0.40;0.40;;;4.30;99.90;;;;;;6317369;22;20186;-86
2023/12/21 05:04:58;;;;;;;0.50;0.50;;;4.30;99.90;;;;;;6167868;22;20193;-89
2023/12/21 05:07:30;;;;;;;0.70;0.70;;;4.40;99.90;;;;;;6170124;22;20182;-89
2023/12/21 05:15:44;;;;;;;0.40;0.40;;;4.40;99.90;;;;;;6215167;22;20659;-89
2023/12/21 05:18:13;;;;;;;0.60;0.60;;;4.50;99.90;;;;;;6325068;22;20182;-89
2023/12/21 05:20:40;;;;;;;0.40;0.40;;;4.50;99.90;;;;;;6319027;22;20185;-86
2023/12/21 05:23:10;;;;;;;0.40;0.40;;;4.50;99.90;;;;;;6303509;22;20190;-86
2023/12/21 05:25:37;;;;;;;0.40;0.40;;;4.50;99.90;;;;;;6323296;22;20234;-85
2023/12/21 05:36:26;;;;;;;0.40;0.40;;;4.60;99.90;;;;;;6190729;22;20209;-87
2023/12/21 05:50:20;;;;;;;0.40;0.40;;;4.70;99.90;;;;;;6166809;22;20234;-87
2023/12/21 06:03:36;;;;;;;0.40;0.40;;;4.70;99.90;;;;;;6156253;22;20210;-91
2023/12/21 06:06:13;;;;;;;0.70;0.70;;;4.70;99.90;;;;;;6174584;22;20249;-87
2023/12/21 06:11:32;;;;;;;0.40;0.40;;;4.60;99.90;;;;;;6214952;22;20313;-88
2023/12/21 07:16:16;;;;;;;0.85;0.68;;;5.00;99.90;;;;;;6283705;22;20211;-87
2023/12/21 07:18:46;;;;;;;0.43;0.43;;;5.10;99.90;;;;;;6330972;22;20180;-84
2023/12/21 07:21:26;;;;;;;0.40;0.40;;;5.10;99.90;;;;;;6350144;22;20181;-88
2023/12/21 07:24:22;;;;;;;1.33;1.23;;;5.20;99.90;;;;;;6349783;22;20222;-87
2023/12/21 07:27:12;;;;;;;0.50;0.50;;;5.20;99.90;;;;;;6334160;22;20189;-88
2023/12/21 07:29:44;;;;;;;0.88;0.88;;;5.20;99.90;;;;;;6353475;22;20165;-87
2023/12/21 07:32:21;;;;;;;0.40;0.40;;;5.30;99.90;;;;;;6330547;22;20166;-84
2023/12/21 07:34:48;;;;;;;0.50;0.50;;;5.40;99.90;;;;;;6329221;22;20170;-85
2023/12/21 07:37:17;;;;;;;0.98;0.98;;;5.40;99.90;;;;;;6352768;22;20161;-83
2023/12/21 07:39:46;;;;;;;0.40;0.40;;;5.40;99.90;;;;;;6327325;22;20211;-85
2023/12/21 07:42:19;;;;;;;0.50;0.50;;;5.40;99.90;;;;;;6349096;22;20205;-88
2023/12/21 07:44:46;;;;;;;0.40;0.40;;;5.40;99.90;;;;;;6320244;22;20744;-89
2023/12/21 07:47:18;;;;;;;0.50;0.50;;;5.40;99.90;;;;;;6347681;22;20251;-87
2023/12/21 07:49:55;;;;;;;0.50;0.50;;;5.40;99.90;;;;;;6296096;22;20173;-88
2023/12/21 07:52:30;;;;;;;0.60;0.60;;;5.50;99.90;;;;;;6347537;22;20177;-86
2023/12/21 07:54:58;;;;;;;0.50;0.50;;;5.50;99.90;;;;;;6308560;22;20414;-87
2023/12/21 07:57:45;;;;;;;0.50;0.50;;;5.60;99.90;;;;;;6349815;22;20224;-87
2023/12/21 08:00:26;;;;;;;0.40;0.40;;;5.70;99.90;;;;;;6348438;22;20215;-87
2023/12/21 08:02:59;;;;;;;0.50;0.50;;;5.80;99.90;;;;;;6346804;22;20219;-85
2023/12/21 08:05:31;;;;;;;0.90;0.90;;;5.90;99.90;;;;;;6325201;22;20193;-92
2023/12/21 08:08:19;;;;;;;0.50;0.50;;;6.00;99.90;;;;;;6326135;22;20165;-85
2023/12/21 08:10:51;;;;;;;0.50;0.50;;;5.80;99.90;;;;;;6322257;22;20182;-87
2023/12/21 08:13:19;;;;;;;0.50;0.50;;;5.90;99.90;;;;;;6349265;22;20162;-86
2023/12/21 08:15:49;;;;;;;0.43;0.43;;;5.90;99.90;;;;;;6323818;22;20280;-86
2023/12/21 08:18:27;;;;;;;0.60;0.60;;;5.90;99.90;;;;;;6347620;22;20489;-87
2023/12/21 08:20:54;;;;;;;0.50;0.50;;;6.10;99.90;;;;;;6322338;22;20172;-89
2023/12/21 08:23:24;;;;;;;0.40;0.40;;;6.00;99.90;;;;;;6320017;22;20242;-86
2023/12/21 08:25:52;;;;;;;0.77;0.77;;;6.00;99.90;;;;;;6321532;22;20217;-84
2023/12/21 08:28:20;;;;;;;0.60;0.60;;;6.10;99.90;;;;;;6348143;22;20195;-88
2023/12/21 08:30:47;;;;;;;0.50;0.50;;;6.10;99.90;;;;;;6348249;22;20605;-89
2023/12/21 08:33:23;;;;;;;0.40;0.40;;;6.00;99.90;;;;;;6347965;22;20327;-87
2023/12/21 08:36:03;;;;;;;0.40;0.40;;;6.10;99.90;;;;;;6330440;22;20291;-84
2023/12/21 08:38:40;;;;;;;0.80;0.80;;;6.10;99.90;;;;;;6364838;22;20205;-87
2023/12/21 08:41:17;;;;;;;0.40;0.40;;;6.10;99.90;;;;;;6327032;22;20165;-87
2023/12/21 08:43:46;;;;;;;0.50;0.50;;;6.10;99.90;;;;;;6347841;22;20480;-89
2023/12/21 08:46:14;;;;;;;0.50;0.50;;;6.10;99.90;;;;;;6345839;22;20255;-90
2023/12/21 08:48:43;;;;;;;0.50;0.50;;;6.00;99.90;;;;;;6319485;22;20182;-86
2023/12/21 08:51:10;;;;;;;0.50;0.50;;;6.00;99.90;;;;;;6294320;22;20184;-89
2023/12/21 08:53:39;;;;;;;0.50;0.50;;;6.10;99.90;;;;;;6321429;22;20177;-83
2023/12/21 08:56:15;;;;;;;0.50;0.50;;;6.10;99.90;;;;;;6349347;22;20192;-85
2023/12/21 08:58:44;;;;;;;0.40;0.40;;;6.10;99.90;;;;;;6348891;22;20169;-86
2023/12/21 09:01:14;;;;;;;0.40;0.40;;;6.10;99.90;;;;;;6321505;22;20242;-85
2023/12/21 09:03:46;;;;;;;0.40;0.40;;;6.20;99.90;;;;;;6353727;22;20150;-85
2023/12/21 09:06:19;;;;;;;0.40;0.40;;;6.20;99.90;;;;;;6337242;22;20220;-83
2023/12/21 09:08:54;;;;;;;0.40;0.40;;;6.50;99.90;;;;;;6237083;23;20183;-85
2023/12/21 09:11:45;;;;;;;0.50;0.50;;;6.30;99.90;;;;;;6236594;23;20168;-86
2023/12/21 09:14:15;;;;;;;0.50;0.50;;;6.30;99.90;;;;;;6224730;23;20190;-88
2023/12/21 09:16:44;;;;;;;0.47;0.47;;;6.40;99.90;;;;;;6197621;23;20194;-87
2023/12/21 09:19:12;;;;;;;0.40;0.40;;;6.30;99.90;;;;;;6220320;23;20183;-85
2023/12/21 09:21:44;;;;;;;0.70;0.70;;;6.30;99.90;;;;;;6220028;23;20188;-85
2023/12/21 09:24:11;;;;;;;0.40;0.40;;;6.30;99.90;;;;;;6195041;23;20211;-85
2023/12/21 09:26:43;;;;;;;0.50;0.50;;;6.30;99.90;;;;;;6267656;22;20202;-84
2023/12/21 09:29:10;;;;;;;0.40;0.40;;;6.30;99.90;;;;;;6345640;22;20174;-83
2023/12/21 09:31:44;;;;;;;0.50;0.50;;;6.30;99.90;;;;;;6347365;22;20193;-85
2023/12/21 09:34:14;;;;;;;0.40;0.40;;;6.30;99.90;;;;;;6347452;22;20223;-82
2023/12/21 09:36:46;;;;;;;0.50;0.50;;;6.20;99.90;;;;;;6347776;22;20233;-84
2023/12/21 09:39:15;;;;;;;0.50;0.50;;;6.40;99.90;;;;;;6348383;22;20231;-86
2023/12/21 09:41:46;;;;;;;0.50;0.50;;;6.20;99.90;;;;;;6322111;22;20324;-85
2023/12/21 09:44:30;;;;;;;0.40;0.40;;;6.10;99.90;;;;;;6304603;22;20154;-83
2023/12/21 09:47:04;;;;;;;0.40;0.40;;;6.20;99.90;;;;;;6347886;22;20198;-87
2023/12/21 09:50:01;;;;;;;0.43;0.43;;;6.40;99.90;;;;;;6320541;22;20530;-86
2023/12/21 09:52:31;;;;;;;0.90;0.90;;;6.00;99.90;;;;;;6344681;22;20168;-83
2023/12/21 09:55:00;;;;;;;0.50;0.50;;;6.00;99.90;;;;;;6344861;22;20696;-83
2023/12/21 09:57:34;;;;;;;0.43;0.43;;;6.10;99.90;;;;;;6344728;22;20216;-84
2023/12/21 10:00:02;;;;;;;0.50;0.50;;;6.10;99.90;;;;;;6330393;22;20149;-84
2023/12/21 10:02:31;;;;;;;0.50;0.50;;;6.10;99.90;;;;;;6330059;22;20211;-84
2023/12/21 10:04:59;;;;;;;0.40;0.40;;;6.10;99.90;;;;;;6361045;22;20257;-85
2023/12/21 10:07:26;;;;;;;0.50;0.50;;;6.10;99.90;;;;;;6350313;22;20197;-80
2023/12/21 10:09:54;;;;;;;0.40;0.40;;;6.10;99.90;;;;;;6346681;22;20170;-85
2023/12/21 10:12:21;;;;;;;1.67;1.60;;;5.90;99.90;;;;;;6344985;22;20177;-82
2023/12/21 10:14:59;;;;;;;0.40;0.40;;;6.10;99.90;;;;;;6316925;22;20166;-85
2023/12/21 10:17:26;;;;;;;0.40;0.40;;;6.00;99.90;;;;;;6344275;22;20239;-84
2023/12/21 10:19:53;;;;;;;0.40;0.40;;;6.00;99.90;;;;;;6344064;22;20244;-85
2023/12/21 10:22:22;;;;;;;0.40;0.40;;;6.00;99.90;;;;;;6344084;22;20237;-86
2023/12/21 10:24:51;;;;;;;0.40;0.40;;;6.00;99.90;;;;;;6344671;22;20721;-86
2023/12/21 10:27:21;;;;;;;0.40;0.40;;;6.30;99.90;;;;;;6342649;22;20212;-87
2023/12/21 10:29:53;;;;;;;0.40;0.40;;;6.00;99.90;;;;;;6347052;22;20357;-85
2023/12/21 10:32:20;;;;;;;0.40;0.40;;;6.00;99.90;;;;;;6345099;22;20173;-87
2023/12/21 10:34:48;;;;;;;0.40;0.40;;;6.00;99.90;;;;;;6347359;22;20330;-85
2023/12/21 10:37:16;;;;;;;0.40;0.40;;;6.10;99.90;;;;;;6320305;22;20522;-85
2023/12/21 10:39:44;;;;;;;0.40;0.40;;;6.40;99.90;;;;;;6324418;22;20181;-85
2023/12/21 10:42:14;;;;;;;0.40;0.40;;;6.00;99.90;;;;;;6326217;22;20362;-82
2023/12/21 10:44:47;;;;;;;0.40;0.40;;;6.00;99.90;;;;;;6358547;22;20170;-85
2023/12/21 10:47:17;;;;;;;0.40;0.40;;;6.00;99.90;;;;;;6356926;22;20205;-83
2023/12/21 10:49:46;;;;;;;0.50;0.50;;;5.90;99.90;;;;;;6353056;22;20201;-86
2023/12/21 10:52:17;;;;;;;0.47;0.47;;;6.00;99.90;;;;;;6349932;22;20206;-82
2023/12/21 10:54:49;;;;;;;0.40;0.40;;;6.10;99.90;;;;;;6350761;22;20466;-85
2023/12/21 10:57:18;;;;;;;0.40;0.40;;;6.20;99.90;;;;;;6348483;22;20177;-84
2023/12/21 10:59:48;;;;;;;0.68;0.68;;;6.20;99.90;;;;;;6350382;22;20178;-84
2023/12/21 11:02:18;;;;;;;1.25;1.17;;;6.20;99.90;;;;;;6359272;22;20210;-86
2023/12/21 11:04:47;;;;;;;0.40;0.40;;;6.20;99.90;;;;;;6366745;22;20181;-85
2023/12/21 11:07:17;;;;;;;0.40;0.40;;;6.30;99.90;;;;;;6325036;22;20209;-88
2023/12/21 11:09:45;;;;;;;1.60;1.50;;;6.30;99.90;;;;;;6349632;22;20197;-87
2023/12/21 11:12:17;;;;;;;0.40;0.40;;;6.40;99.90;;;;;;6349806;22;20174;-88
2023/12/21 11:14:56;;;;;;;2.00;1.88;;;6.40;99.90;;;;;;6298781;22;20161;-88
2023/12/21 11:17:32;;;;;;;0.60;0.60;;;6.50;99.90;;;;;;6322224;22;20205;-88
2023/12/21 11:20:06;;;;;;;0.50;0.50;;;6.50;99.90;;;;;;6322480;22;20158;-85
2023/12/21 11:22:39;;;;;;;0.68;0.68;;;6.50;99.90;;;;;;6322147;22;20177;-83
2023/12/21 11:25:13;;;;;;;0.40;0.40;;;6.50;99.90;;;;;;6355050;22;20185;-88
2023/12/21 11:27:42;;;;;;;0.50;0.50;;;6.40;99.90;;;;;;6348627;22;20228;-86
2023/12/21 11:30:19;;;;;;;0.40;0.40;;;6.40;99.90;;;;;;6295074;22;20177;-84
2023/12/21 11:32:48;;;;;;;0.40;0.40;;;6.40;99.90;;;;;;6347892;22;20184;-89
2023/12/21 11:35:25;;;;;;;0.50;0.50;;;6.30;99.90;;;;;;6347479;22;20165;-86
2023/12/21 11:37:58;;;;;;;0.40;0.40;;;6.50;99.90;;;;;;6320253;22;20158;-88
2023/12/21 11:40:26;;;;;;;0.40;0.40;;;6.50;99.90;;;;;;6347327;22;20219;-87
2023/12/21 11:42:54;;;;;;;0.40;0.40;;;6.30;99.90;;;;;;6343038;22;20181;-82
2023/12/21 11:45:23;;;;;;;0.40;0.40;;;6.30;99.90;;;;;;6343469;22;20177;-88
2023/12/21 11:47:54;;;;;;;0.40;0.40;;;6.30;99.90;;;;;;6346666;22;20198;-87
2023/12/21 11:50:26;;;;;;;0.40;0.40;;;6.30;99.90;;;;;;6345571;22;20173;-82
2023/12/21 11:53:15;;;;;;;0.40;0.40;;;6.30;99.90;;;;;;6320762;22;20468;-86
2023/12/21 11:55:51;;;;;;;0.40;0.40;;;6.30;99.90;;;;;;6321100;22;20227;-84
2023/12/21 11:58:23;;;;;;;0.40;0.40;;;6.50;99.90;;;;;;6348381;22;20169;-87
2023/12/21 12:00:56;;;;;;;0.40;0.40;;;6.40;99.90;;;;;;6348331;22;20327;-83
2023/12/21 12:03:28;;;;;;;0.40;0.40;;;6.30;99.90;;;;;;6348327;22;20715;-86
2023/12/21 12:06:32;;;;;;;0.50;0.50;;;6.30;99.90;;;;;;6337603;22;20247;-85
2023/12/21 12:09:06;;;;;;;0.50;0.50;;;6.30;99.90;;;;;;6346653;22;20174;-82
2023/12/21 12:11:35;;;;;;;0.50;0.50;;;6.30;99.90;;;;;;6349402;22;20178;-86
2023/12/21 12:14:03;;;;;;;0.40;0.40;;;6.30;99.90;;;;;;6354488;22;20166;-84
2023/12/21 12:16:36;;;;;;;0.40;0.40;;;6.30;99.90;;;;;;6347138;22;20185;-85
2023/12/21 12:19:12;;;;;;;0.98;0.98;;;6.30;99.90;;;;;;6346202;22;20183;-85
2023/12/21 12:21:42;;;;;;;0.50;0.50;;;6.30;99.90;;;;;;6318624;22;20261;-86
2023/12/21 12:24:14;;;;;;;0.50;0.50;;;6.40;99.90;;;;;;6352747;22;20181;-85
2023/12/21 12:26:46;;;;;;;0.50;0.50;;;6.40;99.90;;;;;;6328375;22;20235;-83
2023/12/21 12:29:17;;;;;;;0.50;0.50;;;6.50;99.90;;;;;;6353982;22;20170;-86
2023/12/21 12:31:49;;;;;;;0.40;0.40;;;6.50;99.90;;;;;;6354288;22;20191;-81
2023/12/21 12:34:17;;;;;;;1.45;1.45;;;6.30;99.90;;;;;;6320172;22;20166;-84
2023/12/21 12:36:51;;;;;;;0.50;0.50;;;6.20;99.90;;;;;;6318985;22;20185;-86
2023/12/21 12:39:21;;;;;;;0.50;0.50;;;6.30;99.90;;;;;;6293729;22;20556;-85
2023/12/21 12:41:55;;;;;;;0.70;0.70;;;6.30;99.90;;;;;;6298108;22;20169;-88
2023/12/21 12:44:25;;;;;;;0.50;0.50;;;6.30;99.90;;;;;;6348779;22;20200;-83
2023/12/21 12:46:54;;;;;;;0.40;0.40;;;6.40;99.90;;;;;;6346538;22;20189;-85
2023/12/21 12:49:24;;;;;;;0.50;0.50;;;6.30;99.90;;;;;;6318804;22;20169;-87
2023/12/21 12:51:52;;;;;;;0.90;0.90;;;6.30;99.90;;;;;;6319407;22;20177;-85
2023/12/21 12:54:31;;;;;;;0.50;0.50;;;6.30;99.90;;;;;;6322093;22;20162;-88
2023/12/21 12:57:11;;;;;;;0.50;0.50;;;6.00;99.90;;;;;;6298781;22;20734;-87
2023/12/21 12:59:44;;;;;;;0.75;0.75;;;6.20;99.90;;;;;;6319501;22;20184;-83
2023/12/21 13:02:14;;;;;;;0.57;0.57;;;6.40;99.90;;;;;;6321860;22;20475;-86
2023/12/21 13:04:50;;;;;;;1.20;1.08;;;6.30;99.90;;;;;;6348914;22;20310;-87
2023/12/21 13:07:32;;;;;;;0.40;0.40;;;6.40;99.90;;;;;;6326074;22;20278;-84
2023/12/21 13:10:35;;;;;;;0.63;0.63;;;6.40;99.90;;;;;;6321769;22;20193;-88
2023/12/21 13:13:07;;;;;;;0.47;0.47;;;6.40;99.90;;;;;;6323012;22;20169;-82
2023/12/21 13:15:36;;;;;;;0.47;0.47;;;6.40;99.90;;;;;;6321706;22;20185;-87
2023/12/21 13:18:10;;;;;;;0.40;0.40;;;6.50;99.90;;;;;;6351883;22;20177;-88
2023/12/21 13:20:46;;;;;;;0.50;0.50;;;6.50;99.90;;;;;;6298993;22;20328;-86
2023/12/21 13:23:16;;;;;;;0.40;0.40;;;6.50;99.90;;;;;;6353511;22;20461;-86
2023/12/21 13:25:49;;;;;;;1.45;1.45;;;6.50;99.90;;;;;;6328432;22;20172;-90
2023/12/21 13:28:32;;;;;;;0.60;0.60;;;6.40;99.90;;;;;;6338575;22;20272;-88
2023/12/21 13:31:02;;;;;;;0.40;0.40;;;6.50;99.90;;;;;;6333455;22;20189;-90
2023/12/21 13:33:52;;;;;;;0.93;0.93;;;6.40;99.90;;;;;;6353916;22;20519;-85
2023/12/21 13:36:20;;;;;;;0.73;0.73;;;6.40;99.90;;;;;;6364526;22;20207;-85
2023/12/21 13:38:48;;;;;;;0.40;0.40;;;6.40;99.90;;;;;;6363784;22;20169;-87
2023/12/21 13:41:22;;;;;;;0.40;0.40;;;6.00;99.90;;;;;;6362193;22;20173;-84
2023/12/21 13:43:54;;;;;;;0.88;0.88;;;6.50;99.90;;;;;;6328833;22;20417;-84
2023/12/21 13:46:28;;;;;;;0.40;0.40;;;6.50;99.90;;;;;;6326020;22;20228;-85
2023/12/21 13:49:00;;;;;;;0.40;0.40;;;6.50;99.90;;;;;;6326458;22;20446;-87
2023/12/21 13:51:54;;;;;;;0.40;0.40;;;6.50;99.90;;;;;;6353898;22;20165;-90
2023/12/21 13:54:28;;;;;;;0.40;0.40;;;6.50;99.90;;;;;;6353463;22;20161;-87
2023/12/21 13:57:09;;;;;;;0.40;0.40;;;6.50;99.90;;;;;;6353389;22;20208;-85
2023/12/21 13:59:42;;;;;;;0.40;0.40;;;6.60;99.90;;;;;;6354324;22;20215;-85
2023/12/21 14:02:09;;;;;;;2.25;2.15;;;6.60;99.90;;;;;;6352600;22;20393;-87
2023/12/21 14:04:37;;;;;;;0.40;0.40;;;6.50;99.90;;;;;;6355329;22;20157;-86
2023/12/21 14:07:06;;;;;;;0.40;0.40;;;6.90;99.90;;;;;;6308447;22;20223;-85
2023/12/21 14:09:43;;;;;;;0.60;0.60;;;6.70;99.90;;;;;;6335112;22;20160;-88
2023/12/21 14:12:17;;;;;;;0.40;0.40;;;6.70;99.90;;;;;;6325651;22;20178;-87
2023/12/21 14:14:53;;;;;;;0.40;0.40;;;6.90;99.90;;;;;;6320371;22;20180;-87
2023/12/21 14:17:43;;;;;;;0.63;0.63;;;6.60;99.90;;;;;;6350526;22;20201;-87
2023/12/21 14:20:18;;;;;;;0.40;0.40;;;6.70;99.90;;;;;;6326169;22;20165;-85
2023/12/21 14:22:55;;;;;;;0.40;0.40;;;6.70;99.90;;;;;;6331617;22;20158;-85
2023/12/21 14:25:24;;;;;;;0.50;0.50;;;6.60;99.90;;;;;;6339532;22;20433;-85
2023/12/21 14:27:59;;;;;;;0.95;0.82;;;6.70;99.90;;;;;;6365534;22;20241;-85
2023/12/21 14:30:27;;;;;;;0.40;0.40;;;6.60;99.90;;;;;;6340503;22;20191;-85
2023/12/21 14:33:05;;;;;;;0.40;0.40;;;6.70;99.90;;;;;;6365424;22;20177;-85
2023/12/21 14:35:37;;;;;;;0.88;0.88;;;6.70;99.90;;;;;;6361227;22;20216;-82
2023/12/21 14:38:04;;;;;;;0.40;0.40;;;6.70;99.90;;;;;;6312188;22;20257;-88
2023/12/21 14:40:39;;;;;;;0.40;0.40;;;6.70;99.90;;;;;;6363525;22;20181;-85
2023/12/21 14:43:08;;;;;;;0.40;0.40;;;7.00;99.90;;;;;;6337638;22;20146;-85
2023/12/21 14:45:35;;;;;;;0.40;0.40;;;6.80;99.90;;;;;;6363930;22;20193;-86
2023/12/21 14:48:06;;;;;;;0.40;0.40;;;6.80;99.90;;;;;;6364592;22;20197;-86
2023/12/21 14:50:34;;;;;;;4.05;1.77;;;6.80;99.90;;;;;;6360668;22;20168;-85
2023/12/21 14:53:03;;;;;;;0.40;0.40;;;6.60;99.90;;;;;;6354927;22;20231;-85
2023/12/21 14:55:31;;;;;;;1.52;0.93;;;6.80;99.90;;;;;;6303184;22;20248;-85
2023/12/21 14:58:04;;;;;;;0.82;0.82;;;6.70;99.90;;;;;;6325437;22;20182;-85
2023/12/21 15:00:37;;;;;;;0.40;0.40;;;6.80;99.90;;;;;;6355013;22;20184;-84
2023/12/21 15:03:08;;;;;;;0.50;0.50;;;6.80;99.90;;;;;;6351720;22;20193;-82
2023/12/21 15:05:37;;;;;;;0.95;0.95;;;6.80;99.90;;;;;;6300341;22;20257;-83
2023/12/21 15:08:05;;;;;;;0.65;0.65;;;6.50;99.90;;;;;;6350776;22;20197;-84
2023/12/21 15:10:35;;;;;;;0.40;0.40;;;6.80;99.90;;;;;;6349696;22;20154;-85
2023/12/21 15:13:06;;;;;;;0.40;0.40;;;6.80;99.90;;;;;;6349088;22;20185;-85
2023/12/21 15:15:39;;;;;;;0.70;0.70;;;6.90;99.90;;;;;;6347642;22;20181;-91
2023/12/21 15:18:10;;;;;;;0.40;0.40;;;6.90;99.90;;;;;;6359159;22;20221;-88
2023/12/21 15:20:39;;;;;;;0.40;0.40;;;6.80;99.90;;;;;;6353591;22;20507;-86
2023/12/21 15:23:06;;;;;;;0.40;0.40;;;6.90;99.90;;;;;;6351684;22;20166;-87
2023/12/21 15:25:34;;;;;;;0.40;0.40;;;6.90;99.90;;;;;;6351595;22;20170;-86
2023/12/21 15:28:09;;;;;;;1.13;0.98;;;6.70;99.90;;;;;;6350812;22;20193;-84